createdAt,value
2023-11-15T00:01:52.953Z,78.11
2023-11-15T00:04:50.329Z,78.20
2023-11-15T00:07:47.963Z,78.20
2023-11-15T00:10:45.365Z,78.25
2023-11-15T00:13:43.024Z,78.32
2023-11-15T00:16:40.457Z,78.43
2023-11-15T00:19:38.098Z,78.47
2023-11-15T00:22:36.532Z,78.48
2023-11-15T00:25:34.568Z,78.50
2023-11-15T00:28:32.010Z,78.50
2023-11-15T00:31:30.292Z,78.55
2023-11-15T00:34:27.719Z,78.44
2023-11-15T00:37:25.419Z,78.35
2023-11-15T00:40:23.172Z,78.33
2023-11-15T00:43:21.084Z,78.25
2023-11-15T00:46:18.741Z,78.19
2023-11-15T00:49:16.485Z,78.09
2023-11-15T00:52:15.383Z,77.91
2023-11-15T00:55:13.497Z,77.72
2023-11-15T00:58:11.540Z,77.57
2023-11-15T01:01:12.699Z,77.26
2023-11-15T01:04:10.446Z,76.95
2023-11-15T01:07:08.627Z,76.63
2023-11-15T01:10:07.347Z,76.23
2023-11-15T01:13:05.383Z,75.98
2023-11-15T01:16:03.177Z,75.71
2023-11-15T01:19:00.799Z,75.49
2023-11-15T01:21:58.786Z,75.29
2023-11-15T01:24:56.593Z,75.03
2023-11-15T01:27:54.086Z,74.68
2023-11-15T01:30:51.816Z,74.61
2023-11-15T01:33:49.206Z,74.43
2023-11-15T01:36:46.996Z,74.22
2023-11-15T01:39:44.408Z,74.09
2023-11-15T01:42:41.982Z,73.94
2023-11-15T01:45:39.367Z,73.76
2023-11-15T01:48:37.898Z,73.54
2023-11-15T01:51:35.292Z,73.36
2023-11-15T01:54:33.003Z,73.08
2023-11-15T01:57:30.791Z,72.86
2023-11-15T02:00:28.653Z,72.68
2023-11-15T02:03:26.133Z,72.44
2023-11-15T02:06:24.083Z,72.22
2023-11-15T02:09:21.972Z,71.97
2023-11-15T02:12:19.410Z,71.79
2023-11-15T02:15:17.693Z,71.76
2023-11-15T02:18:15.377Z,71.64
2023-11-15T02:21:12.794Z,71.54
2023-11-15T02:24:10.475Z,71.43
2023-11-15T02:27:08.994Z,71.33
2023-11-15T02:30:06.762Z,71.09
2023-11-15T02:33:04.224Z,70.97
2023-11-15T02:36:02.101Z,70.87
2023-11-15T02:38:59.518Z,70.55
2023-11-15T02:41:57.141Z,70.28
2023-11-15T02:44:54.768Z,70.10
2023-11-15T02:47:52.343Z,69.99
2023-11-15T02:50:50.193Z,70.02
2023-11-15T02:53:47.874Z,69.75
2023-11-15T02:56:45.719Z,69.47
2023-11-15T02:59:43.168Z,69.28
2023-11-15T03:02:41.086Z,69.18
2023-11-15T03:05:39.184Z,68.93
2023-11-15T03:08:37.005Z,68.71
2023-11-15T03:11:34.540Z,68.51
2023-11-15T03:14:32.368Z,68.30
2023-11-15T03:17:29.919Z,68.11
2023-11-15T03:20:27.782Z,67.86
2023-11-15T03:23:26.016Z,67.60
2023-11-15T03:26:23.644Z,67.46
2023-11-15T03:29:21.037Z,67.29
2023-11-15T03:32:18.710Z,67.30
2023-11-15T03:35:16.292Z,67.30
2023-11-15T03:38:14.037Z,67.19
2023-11-15T03:41:12.083Z,67.30
2023-11-15T03:44:09.741Z,67.36
2023-11-15T03:47:07.129Z,67.45
2023-11-15T03:50:05.810Z,67.58
2023-11-15T03:53:04.189Z,67.68
2023-11-15T03:56:01.560Z,67.75
2023-11-15T03:58:59.536Z,67.84
2023-11-15T04:01:57.984Z,67.86
2023-11-15T04:04:56.025Z,67.73
2023-11-15T04:07:53.652Z,67.70
2023-11-15T04:10:51.648Z,67.60
2023-11-15T04:13:49.328Z,67.61
2023-11-15T04:16:47.064Z,67.50
2023-11-15T04:19:44.451Z,67.37
2023-11-15T04:22:42.235Z,67.25
2023-11-15T04:25:41.103Z,67.14
2023-11-15T04:28:38.751Z,67.09
2023-11-15T04:31:36.767Z,66.94
2023-11-15T04:34:34.626Z,66.97
2023-11-15T04:37:32.052Z,67.00
2023-11-15T04:40:29.817Z,66.93
2023-11-15T04:43:27.597Z,66.87
2023-11-15T04:46:25.020Z,66.91
2023-11-15T04:49:22.692Z,66.87
2023-11-15T04:52:20.099Z,66.79
2023-11-15T04:55:17.842Z,66.66
2023-11-15T04:58:16.247Z,66.68
2023-11-15T05:01:15.335Z,66.69
2023-11-15T05:04:12.878Z,66.70
2023-11-15T05:07:12.397Z,66.67
2023-11-15T05:10:11.264Z,66.57
2023-11-15T05:13:09.354Z,66.57
2023-11-15T05:16:06.969Z,66.59
2023-11-15T05:19:04.752Z,66.65
2023-11-15T05:22:03.303Z,66.69
2023-11-15T05:25:00.761Z,66.68
2023-11-15T05:27:58.437Z,66.60
2023-11-15T05:30:56.056Z,66.43
2023-11-15T05:33:53.615Z,66.50
2023-11-15T05:36:51.078Z,66.48
2023-11-15T05:39:48.853Z,66.51
2023-11-15T05:42:46.438Z,66.65
2023-11-15T05:45:44.202Z,66.63
2023-11-15T05:48:41.606Z,66.60
2023-11-15T05:51:41.757Z,66.67
2023-11-15T05:54:39.201Z,66.74
2023-11-15T05:57:36.919Z,66.78
2023-11-15T06:00:34.389Z,66.78
2023-11-15T06:03:32.398Z,66.72
2023-11-15T06:06:29.893Z,66.79
2023-11-15T06:09:27.726Z,66.83
2023-11-15T06:12:25.113Z,66.81
2023-11-15T06:15:22.670Z,66.79
2023-11-15T06:18:20.379Z,66.87
2023-11-15T06:21:19.541Z,66.99
2023-11-15T06:24:17.077Z,67.07
2023-11-15T06:27:14.614Z,67.17
2023-11-15T06:30:13.887Z,67.23
2023-11-15T06:33:11.568Z,67.32
2023-11-15T06:36:09.751Z,67.40
2023-11-15T06:39:10.094Z,67.38
2023-11-15T06:42:09.371Z,67.45
2023-11-15T06:45:08.299Z,67.35
2023-11-15T06:48:08.332Z,67.42
2023-11-15T06:51:06.323Z,67.36
2023-11-15T06:54:04.109Z,67.38
2023-11-15T06:57:01.757Z,67.33
2023-11-15T06:59:59.573Z,67.41
2023-11-15T07:02:57.597Z,67.43
2023-11-15T07:05:55.143Z,67.39
2023-11-15T07:08:52.896Z,67.51
2023-11-15T07:11:50.658Z,67.52
2023-11-15T07:14:49.451Z,67.52
2023-11-15T07:17:47.591Z,67.48
2023-11-15T07:20:45.939Z,67.52
2023-11-15T07:23:43.745Z,67.59
2023-11-15T07:26:41.165Z,67.61
2023-11-15T07:29:39.514Z,67.67
2023-11-15T07:32:37.312Z,67.80
2023-11-15T07:35:37.680Z,68.06
2023-11-15T07:38:36.307Z,68.12
2023-11-15T07:41:36.096Z,68.14
2023-11-15T07:44:33.961Z,68.10
2023-11-15T07:47:35.751Z,68.06
2023-11-15T07:50:33.662Z,68.05
2023-11-15T07:53:33.508Z,68.03
2023-11-15T07:56:31.279Z,67.99
2023-11-15T07:59:28.671Z,67.84
2023-11-15T08:02:26.384Z,67.80
2023-11-15T08:05:23.842Z,67.78
2023-11-15T08:08:21.535Z,67.76
2023-11-15T08:11:18.921Z,67.81
2023-11-15T08:14:16.711Z,67.81
2023-11-15T08:17:14.231Z,67.71
2023-11-15T08:20:11.873Z,67.63
2023-11-15T08:23:10.539Z,67.75
2023-11-15T08:26:08.942Z,67.85
2023-11-15T08:29:06.676Z,67.93
2023-11-15T08:32:04.391Z,67.90
2023-11-15T08:35:02.015Z,67.95
2023-11-15T08:37:59.671Z,68.42
2023-11-15T08:40:57.152Z,68.99
2023-11-15T08:43:54.839Z,69.13
2023-11-15T08:46:52.798Z,69.13
2023-11-15T08:49:51.980Z,69.02
2023-11-15T08:52:49.642Z,69.13
2023-11-15T08:55:47.317Z,69.13
2023-11-15T08:58:44.761Z,68.90
2023-11-15T09:01:42.998Z,68.88
2023-11-15T09:04:41.339Z,68.57
2023-11-15T09:07:40.502Z,68.10
2023-11-15T09:10:37.885Z,68.01
2023-11-15T09:13:35.437Z,67.54
2023-11-15T09:16:32.947Z,67.03
2023-11-15T09:19:30.682Z,66.88
2023-11-15T09:22:31.241Z,66.33
2023-11-15T09:25:32.366Z,65.90
2023-11-15T09:28:30.657Z,65.28
2023-11-15T09:31:28.091Z,64.83
2023-11-15T09:34:27.013Z,63.96
2023-11-15T09:37:24.564Z,63.72
2023-11-15T09:40:22.459Z,63.27
2023-11-15T09:43:21.227Z,63.19
2023-11-15T09:46:19.240Z,62.90
2023-11-15T09:49:17.455Z,62.86
2023-11-15T09:52:16.688Z,62.48
2023-11-15T09:55:14.277Z,61.92
2023-11-15T09:58:13.341Z,61.73
2023-11-15T10:01:11.045Z,61.38
2023-11-15T10:04:08.985Z,61.38
2023-11-15T10:07:08.627Z,61.41
2023-11-15T10:10:07.179Z,61.34
2023-11-15T10:13:05.417Z,61.08
2023-11-15T10:16:03.966Z,60.91
2023-11-15T10:19:02.035Z,60.88
2023-11-15T10:21:59.633Z,60.88
2023-11-15T10:24:57.337Z,60.83
2023-11-15T10:27:54.879Z,60.88
2023-11-15T10:30:52.638Z,60.76
2023-11-15T10:33:50.882Z,60.83
2023-11-15T10:36:50.122Z,60.82
2023-11-15T10:39:49.541Z,60.72
2023-11-15T10:42:51.793Z,60.90
2023-11-15T10:45:51.635Z,60.88
2023-11-15T10:48:51.099Z,60.81
2023-11-15T10:51:50.223Z,60.67
2023-11-15T10:54:47.874Z,60.92
2023-11-15T10:57:47.850Z,61.06
2023-11-15T11:00:47.227Z,61.11
2023-11-15T11:03:45.779Z,61.13
2023-11-15T11:06:50.279Z,61.10
2023-11-15T11:09:47.849Z,61.02
2023-11-15T11:12:46.213Z,60.90
2023-11-15T11:15:43.885Z,60.83
2023-11-15T11:18:41.521Z,60.66
2023-11-15T11:21:40.969Z,60.56
2023-11-15T11:24:39.832Z,60.58
2023-11-15T11:27:38.323Z,60.54
2023-11-15T11:30:35.998Z,60.72
2023-11-15T11:33:34.108Z,60.82
2023-11-15T11:36:31.657Z,60.88
2023-11-15T11:39:30.691Z,60.65
2023-11-15T11:42:28.356Z,60.69
2023-11-15T11:45:26.121Z,60.54
2023-11-15T11:48:23.765Z,60.63
2023-11-15T11:51:21.676Z,60.70
2023-11-15T11:54:20.256Z,60.70
2023-11-15T11:57:17.744Z,60.37
2023-11-15T12:00:19.597Z,60.34
2023-11-15T12:03:19.462Z,60.34
2023-11-15T12:06:19.932Z,60.47
2023-11-15T12:09:17.789Z,60.37
2023-11-15T12:12:15.613Z,60.39
2023-11-15T12:15:14.815Z,60.50
2023-11-15T12:18:12.427Z,60.63
2023-11-15T12:21:11.316Z,60.63
2023-11-15T12:24:11.433Z,60.61
2023-11-15T12:27:09.363Z,60.48
2023-11-15T12:30:08.577Z,60.31
2023-11-15T12:33:06.329Z,60.08
2023-11-15T12:36:04.218Z,59.73
2023-11-15T12:39:02.230Z,59.85
2023-11-15T12:42:02.697Z,59.90
2023-11-15T12:45:01.162Z,59.93
2023-11-15T12:47:59.012Z,59.95
2023-11-15T12:50:57.815Z,59.82
2023-11-15T12:53:55.848Z,59.85
2023-11-15T12:56:56.627Z,59.78
2023-11-15T12:59:54.466Z,59.80
2023-11-15T13:02:52.262Z,59.66
2023-11-15T13:05:50.328Z,59.53
2023-11-15T13:08:50.721Z,59.67
2023-11-15T13:11:50.556Z,59.59
2023-11-15T13:14:47.997Z,59.37
2023-11-15T13:17:45.946Z,59.04
2023-11-15T13:20:43.954Z,58.99
2023-11-15T13:23:42.161Z,58.95
2023-11-15T13:26:41.748Z,58.97
2023-11-15T13:29:40.546Z,58.78
2023-11-15T13:32:38.026Z,58.83
2023-11-15T13:35:35.955Z,58.92
2023-11-15T13:38:34.323Z,59.00
2023-11-15T13:41:32.299Z,58.93
2023-11-15T13:44:29.710Z,58.97
2023-11-15T13:47:29.619Z,58.90
2023-11-15T13:50:27.145Z,58.93
2023-11-15T13:53:25.084Z,59.08
2023-11-15T13:56:22.968Z,59.03
2023-11-15T13:59:21.971Z,59.03
2023-11-15T14:02:19.523Z,58.96
2023-11-15T14:05:19.332Z,58.81
2023-11-15T14:08:19.424Z,58.71
2023-11-15T14:11:18.180Z,58.80
2023-11-15T14:14:15.657Z,58.83
2023-11-15T14:17:13.604Z,58.82
2023-11-15T14:20:12.603Z,58.78
2023-11-15T14:23:14.123Z,58.69
2023-11-15T14:26:15.561Z,58.62
2023-11-15T14:29:14.244Z,58.65
2023-11-15T14:32:17.616Z,58.63
2023-11-15T14:35:15.037Z,58.58
2023-11-15T14:38:13.764Z,58.62
2023-11-15T14:41:11.629Z,58.71
2023-11-15T14:44:09.518Z,58.65
2023-11-15T14:47:10.256Z,58.76
2023-11-15T14:50:11.622Z,58.83
2023-11-15T14:53:20.163Z,58.80
2023-11-15T14:56:18.112Z,58.91
2023-11-15T14:59:17.161Z,59.10
2023-11-15T15:02:15.133Z,59.28
2023-11-15T15:05:13.298Z,59.47
2023-11-15T15:08:13.403Z,59.72
2023-11-15T15:11:10.883Z,60.02
2023-11-15T15:14:08.789Z,60.19
2023-11-15T15:17:14.645Z,60.35
2023-11-15T15:20:20.365Z,60.55
2023-11-15T15:23:18.695Z,60.72
2023-11-15T15:26:21.021Z,60.84
2023-11-15T15:29:27.177Z,60.90
2023-11-15T15:32:25.362Z,61.04
2023-11-15T15:35:23.268Z,61.15
2023-11-15T15:38:20.754Z,61.25
2023-11-15T15:41:19.251Z,61.36
2023-11-15T15:44:16.643Z,61.47
2023-11-15T15:47:14.425Z,61.57
2023-11-15T15:50:12.256Z,61.75
2023-11-15T15:53:10.977Z,61.89
2023-11-15T15:56:08.848Z,62.03
2023-11-15T15:59:06.237Z,62.05
2023-11-15T16:02:04.139Z,62.10
2023-11-15T16:05:01.545Z,62.14
2023-11-15T16:07:59.410Z,62.03
2023-11-15T16:10:57.698Z,62.13
2023-11-15T16:13:55.161Z,62.17
2023-11-15T16:16:53.030Z,62.35
2023-11-15T16:19:50.915Z,62.28
2023-11-15T16:22:48.382Z,62.23
2023-11-15T16:25:46.532Z,62.14
2023-11-15T16:28:43.994Z,62.11
2023-11-15T16:31:42.180Z,62.08
2023-11-15T16:34:39.625Z,62.12
2023-11-15T16:37:39.995Z,62.19
2023-11-15T16:40:40.386Z,62.13
2023-11-15T16:43:38.258Z,62.16
2023-11-15T16:46:35.776Z,62.18
2023-11-15T16:49:33.688Z,62.17
2023-11-15T16:52:33.084Z,62.20
2023-11-15T16:55:31.561Z,62.16
2023-11-15T16:58:28.926Z,62.22
2023-11-15T17:01:27.248Z,62.20
2023-11-15T17:04:24.721Z,62.19
2023-11-15T17:07:22.999Z,62.28
2023-11-15T17:10:20.579Z,62.36
2023-11-15T17:13:19.279Z,62.57
2023-11-15T17:16:17.360Z,62.79
2023-11-15T17:19:16.059Z,63.13
2023-11-15T17:22:15.079Z,63.67
2023-11-15T17:25:19.654Z,63.92
2023-11-15T17:28:19.696Z,64.10
2023-11-15T17:31:20.266Z,64.35
2023-11-15T17:34:19.204Z,64.58
2023-11-15T17:37:17.130Z,64.75
2023-11-15T17:40:16.527Z,64.88
2023-11-15T17:43:15.343Z,64.98
2023-11-15T17:46:13.995Z,65.14
2023-11-15T17:49:12.335Z,65.23
2023-11-15T17:52:11.255Z,65.38
2023-11-15T17:55:09.406Z,65.50
2023-11-15T17:58:08.763Z,65.68
2023-11-15T18:01:07.156Z,65.82
2023-11-15T18:04:05.386Z,65.93
2023-11-15T18:07:03.043Z,66.11
2023-11-15T18:10:00.943Z,66.18
2023-11-15T18:12:58.723Z,66.31
2023-11-15T18:15:56.958Z,66.41
2023-11-15T18:18:56.309Z,66.54
2023-11-15T18:21:54.355Z,66.57
2023-11-15T18:24:52.393Z,66.68
2023-11-15T18:27:50.523Z,66.78
2023-11-15T18:30:48.290Z,66.87
2023-11-15T18:33:48.612Z,66.97
2023-11-15T18:36:48.817Z,67.07
2023-11-15T18:39:48.562Z,67.18
2023-11-15T18:42:47.893Z,67.21
2023-11-15T18:45:47.856Z,67.25
2023-11-15T18:48:46.366Z,67.27
2023-11-15T18:51:45.037Z,67.29
2023-11-15T18:54:43.666Z,67.38
2023-11-15T18:57:43.230Z,67.40
2023-11-15T19:00:42.932Z,67.47
2023-11-15T19:03:43.117Z,67.50
2023-11-15T19:06:41.986Z,67.57
2023-11-15T19:09:45.095Z,67.60
2023-11-15T19:12:44.961Z,67.68
2023-11-15T19:15:45.363Z,67.80
2023-11-15T19:18:45.481Z,67.98
2023-11-15T19:21:45.444Z,68.13
2023-11-15T19:24:45.991Z,68.26
2023-11-15T19:27:46.833Z,68.47
2023-11-15T19:30:46.623Z,68.58
2023-11-15T19:33:46.957Z,68.83
2023-11-15T19:36:46.757Z,68.91
2023-11-15T19:39:46.591Z,69.02
2023-11-15T19:42:47.142Z,69.15
2023-11-15T19:45:47.525Z,69.27
2023-11-15T19:48:47.520Z,69.38
2023-11-15T19:51:48.449Z,69.45
2023-11-15T19:54:48.642Z,69.53
2023-11-15T19:57:49.095Z,69.63
2023-11-15T20:00:49.597Z,69.69
2023-11-15T20:03:53.613Z,69.70
2023-11-15T20:06:53.860Z,69.71
2023-11-15T20:09:55.419Z,69.79
2023-11-15T20:12:54.828Z,69.79
2023-11-15T20:15:55.879Z,69.80
2023-11-15T20:18:55.165Z,69.79
2023-11-15T20:21:55.557Z,69.73
2023-11-15T20:24:55.429Z,69.71
2023-11-15T20:27:55.460Z,69.79
2023-11-15T20:30:55.653Z,69.77
2023-11-15T20:33:55.494Z,69.64
2023-11-15T20:36:55.807Z,69.47
2023-11-15T20:39:55.261Z,69.38
2023-11-15T20:42:54.780Z,69.30
2023-11-15T20:46:05.133Z,69.19
2023-11-15T20:49:12.205Z,69.13
2023-11-15T20:52:11.869Z,69.11
2023-11-15T20:55:11.066Z,69.14
2023-11-15T20:58:08.680Z,69.21
2023-11-15T21:01:07.734Z,69.30
2023-11-15T21:04:09.139Z,69.30
2023-11-15T21:07:06.765Z,69.32
2023-11-15T21:10:05.476Z,69.38
2023-11-15T21:13:04.319Z,69.43
2023-11-15T21:16:04.500Z,69.45
2023-11-15T21:19:01.869Z,69.50
2023-11-15T21:21:59.555Z,69.50
2023-11-15T21:24:56.967Z,69.48
2023-11-15T21:27:56.029Z,69.46
2023-11-15T21:30:53.579Z,69.35
2023-11-15T21:33:51.560Z,69.21
2023-11-15T21:36:49.150Z,69.06
2023-11-15T21:39:46.606Z,68.97
2023-11-15T21:42:45.813Z,68.92
2023-11-15T21:45:43.332Z,68.84
2023-11-15T21:48:41.362Z,68.72
2023-11-15T21:51:38.832Z,68.61
2023-11-15T21:54:36.519Z,68.52
2023-11-15T21:57:34.014Z,68.43
2023-11-15T22:00:32.404Z,68.39
2023-11-15T22:03:30.164Z,68.31
2023-11-15T22:06:27.970Z,68.31
2023-11-15T22:09:25.544Z,68.29
2023-11-15T22:12:23.589Z,68.30
2023-11-15T22:15:21.409Z,68.32
2023-11-15T22:18:19.752Z,68.40
2023-11-15T22:21:17.218Z,68.45
2023-11-15T22:24:14.839Z,68.45
2023-11-15T22:27:12.252Z,68.50
2023-11-15T22:30:11.266Z,68.52
2023-11-15T22:33:08.901Z,68.50
2023-11-15T22:36:06.650Z,68.54
2023-11-15T22:39:04.178Z,68.52
2023-11-15T22:42:02.373Z,68.53
2023-11-15T22:44:59.813Z,68.50
2023-11-15T22:47:57.350Z,68.50
2023-11-15T22:50:54.848Z,68.50
2023-11-15T22:53:54.539Z,68.52
2023-11-15T22:56:52.742Z,68.54
2023-11-15T22:59:52.566Z,68.60
2023-11-15T23:02:50.750Z,68.63
2023-11-15T23:05:50.229Z,68.69
2023-11-15T23:08:47.660Z,68.72
2023-11-15T23:11:45.210Z,68.75
2023-11-15T23:14:42.597Z,68.78
2023-11-15T23:17:40.309Z,68.80
2023-11-15T23:20:41.466Z,68.90
2023-11-15T23:23:39.189Z,68.90
2023-11-15T23:26:36.961Z,68.93
2023-11-15T23:29:34.649Z,68.97
2023-11-15T23:32:32.859Z,68.99
2023-11-15T23:35:30.563Z,69.02
2023-11-15T23:38:30.547Z,69.07
2023-11-15T23:41:29.626Z,69.10
2023-11-15T23:44:28.445Z,69.10
2023-11-15T23:47:26.224Z,69.10
2023-11-15T23:50:24.284Z,69.07
2023-11-15T23:53:23.007Z,69.10
2023-11-15T23:56:20.435Z,69.10
2023-11-15T23:59:18.413Z,69.10
